Farmville, Virginia
Current Conditions -  °F | °C
As of 1:55 AM on Friday 19 Dec 2014 (Local Time) from KFVX Reporting Station
Overcast Overcast  
Wind Chill: 35°   Ceiling: 11000
Heat Index: 35°   Visibility: 10mi
Dew Point: 27°   Wind: 0mph
Humidity: 71%   Direction: NA
Pressure: 30.11"   Gusts: NA
Location:  37.3°N, 78.39°W
Report Text: KFVX 190655Z AUTO 00000KT 10SM OVC110 02/M03 A3011 RMK AO2 T00171030
Loading
Personal Weather Stations






























Interactive Weather Map New forecast layout! Learn more

10-Day Weather Forecast

Advertisements
Track Severe Weather on mobile